Startpagina
METAR-TAF:

METAR-TAF

Vliegvelden :

Ouagadougou, Burkina Faso

Luchthaven Ouagadougou Internationaal

breedte: 12-21N, lengte: 001-31W, hoogte: 316 m

Actueel weer

Dit bericht is 36 minuten geleden gemaakt, om 12:00 UTC
Wind 15 kt uit het oosten, variërend tussen het oostnoordoosten en het zuidoosten
Temperatuur 41°C
Vochtigheid 8%
Druk 1011 hPa
Zicht: 6000 m

METAR: DFFD 271200Z 09015KT 070V140 6000 NSC 41/00 Q1011 TEMPO 4000 DU

Tijdstip: 12:36 (12:36 UTC)

Verwachting

Dit bericht is 1 uur en het 36 minuten geleden gemaakt, om 11:00 UTC
Verwachting geldig van 27 om 12 UTC tot 28 om 18 UTC
Wind 10 kt uit het oosten
Zicht: 8000 m
Tijdelijke
van 27 om 17 UTC tot 27 om 20 UTC
Zicht: 4000 m
Heiigheid
Tijdelijke
van 28 om 06 UTC tot 28 om 10 UTC
Zicht: 4000 m
Heiigheid

TAF: DFFD 271100Z 2712/2818 10010KT 8000 NSC TEMPO 2717/2720 4000 HZ TEMPO 2806/2810 4000 HZ

Waarnemingen en weersverwachtingen van meer dan 4000 vliegvelden (METAR en TAF).

De beschikbare stations zijn de gele en rode punten op de kaart.

Ga met uw muis naar het station om de naam te zien.

Klik dan om waarnemingen en weersverwachtingen te zien.

kaart wijzigen: klik op de groene knoppen met een zwart kruis om in te zoomen, op de groene knop met een streepje om uit te zoomen of op de groene pijlen voor aangrenzende kaarten.


METAR-TAF: